Time;durP1;ratioP1;P1;durP2;ratioP2;P2;SDS_P1;SDS_P2;PMS_P1;PMS_P2;Temp;Humidity;BMP_temperature;BMP_pressure;BME280_temperature;BME280_humidity;BME280_pressure;Samples;Min_cycle;Max_cycle;Signal;HPM_P1;HPM_P2
2022/08/31 00:06:05;;;;;;;7.33;4.37;;;19.90;99.90;;;;;;4981693;28;20422;-84
2022/08/31 00:08:31;;;;;;;8.73;4.00;;;19.90;99.90;;;;;;4979959;28;20455;-83
2022/08/31 00:10:57;;;;;;;5.30;4.03;;;19.90;99.90;;;;;;4980871;28;20462;-82
2022/08/31 00:13:24;;;;;;;7.27;4.50;;;19.90;99.90;;;;;;4983547;28;20887;-82
2022/08/31 00:15:51;;;;;;;8.53;4.10;;;19.80;99.90;;;;;;4982638;28;20438;-84
2022/08/31 00:18:17;;;;;;;8.10;5.27;;;19.60;99.90;;;;;;4980374;28;20459;-81
2022/08/31 00:20:44;;;;;;;11.93;4.20;;;19.70;99.90;;;;;;4983215;28;20882;-81
2022/08/31 00:23:11;;;;;;;7.57;4.53;;;19.80;99.90;;;;;;4978042;28;20439;-82
2022/08/31 00:25:39;;;;;;;4.80;3.53;;;19.90;99.90;;;;;;4979163;28;20494;-82
2022/08/31 00:28:06;;;;;;;7.50;4.17;;;20.10;99.90;;;;;;4978527;28;20442;-82
2022/08/31 00:30:32;;;;;;;11.30;4.67;;;20.30;99.90;;;;;;4981414;28;20442;-82
2022/08/31 00:32:58;;;;;;;6.20;4.50;;;20.40;99.90;;;;;;4982151;28;20438;-82
2022/08/31 00:35:24;;;;;;;6.23;4.17;;;20.40;99.90;;;;;;4981926;28;20191;-82
2022/08/31 00:37:49;;;;;;;5.30;4.30;;;20.50;99.90;;;;;;4980560;28;20760;-81
2022/08/31 00:40:15;;;;;;;10.50;4.50;;;20.40;99.90;;;;;;4977201;28;20478;-81
2022/08/31 00:42:41;;;;;;;7.93;4.77;;;20.20;99.90;;;;;;4982836;28;20661;-82
2022/08/31 00:45:08;;;;;;;7.87;5.50;;;20.10;99.90;;;;;;4972306;28;20793;-82
2022/08/31 00:47:34;;;;;;;9.60;5.63;;;19.90;99.90;;;;;;4980405;28;20199;-81
2022/08/31 00:50:02;;;;;;;13.53;5.53;;;19.70;99.90;;;;;;4981312;28;20446;-82
2022/08/31 00:52:32;;;;;;;9.17;6.00;;;19.60;99.90;;;;;;4968597;28;20430;-82
2022/08/31 00:55:10;;;;;;;10.00;6.93;;;19.50;99.90;;;;;;4981263;28;20438;-85
2022/08/31 00:57:40;;;;;;;9.63;6.30;;;19.50;99.90;;;;;;4977733;28;21010;-83
2022/08/31 01:00:10;;;;;;;9.03;6.57;;;19.40;99.90;;;;;;4969729;28;20470;-81
2022/08/31 01:02:36;;;;;;;11.00;6.60;;;19.40;99.90;;;;;;4963141;28;20446;-81
2022/08/31 01:05:03;;;;;;;8.00;6.73;;;19.30;99.90;;;;;;4981873;28;21501;-80
2022/08/31 01:07:28;;;;;;;12.27;7.93;;;19.30;99.90;;;;;;4982111;28;20906;-90
2022/08/31 01:09:55;;;;;;;15.13;8.47;;;19.20;99.90;;;;;;4965455;28;20438;-90
2022/08/31 01:12:21;;;;;;;12.27;8.70;;;20.80;99.90;;;;;;4966535;28;20215;-88
2022/08/31 01:14:47;;;;;;;18.70;8.50;;;;;;;;;;4970092;28;21078;-89
2022/08/31 01:17:13;;;;;;;11.47;9.37;;;18.90;99.90;;;;;;4962232;28;20586;-89
2022/08/31 01:20:03;;;;;;;12.80;8.60;;;18.90;99.90;;;;;;4978414;28;21520;-90
2022/08/31 01:22:41;;;;;;;13.63;7.77;;;18.90;99.90;;;;;;4962169;28;20434;-90
2022/08/31 01:25:07;;;;;;;13.40;9.73;;;18.80;99.90;;;;;;4960961;28;20422;-89
2022/08/31 01:27:34;;;;;;;11.10;8.27;;;18.80;99.90;;;;;;4960042;28;20453;-89
2022/08/31 01:30:02;;;;;;;17.30;10.50;;;18.80;99.90;;;;;;4966260;28;20651;-89
2022/08/31 01:32:28;;;;;;;19.00;11.00;;;18.70;99.90;;;;;;4970868;28;20470;-89
2022/08/31 01:34:54;;;;;;;13.90;11.30;;;18.80;99.90;;;;;;4978579;28;20857;-90
2022/08/31 01:37:19;;;;;;;18.43;10.40;;;18.70;99.90;;;;;;4978227;28;20217;-89
2022/08/31 01:39:45;;;;;;;18.60;11.80;;;18.70;99.90;;;;;;4971197;28;20183;-90
2022/08/31 01:42:10;;;;;;;17.17;11.40;;;18.70;99.90;;;;;;4976500;28;20255;-90
2022/08/31 01:44:36;;;;;;;17.47;10.63;;;;;;;;;;4981592;28;20265;-89
2022/08/31 01:47:02;;;;;;;15.10;10.57;;;;;;;;;;4984329;28;20306;-89
2022/08/31 01:49:28;;;;;;;17.77;11.30;;;;;;;;;;4965669;28;20438;-89
2022/08/31 01:51:54;;;;;;;14.23;11.30;;;;;;;;;;4980364;28;20441;-89
2022/08/31 01:54:22;;;;;;;15.43;10.90;;;18.50;99.90;;;;;;4964402;28;20496;-90
2022/08/31 01:56:49;;;;;;;16.90;11.10;;;18.60;99.90;;;;;;4972173;28;20873;-90
2022/08/31 01:59:17;;;;;;;17.47;11.00;;;19.30;99.90;;;;;;4965542;28;20462;-89
2022/08/31 02:01:45;;;;;;;16.80;11.47;;;19.50;99.90;;;;;;4962630;28;20462;-89
2022/08/31 02:04:13;;;;;;;16.90;10.13;;;18.50;99.90;;;;;;4969641;28;20446;-89
2022/08/31 02:06:45;;;;;;;21.40;10.40;;;18.50;99.90;;;;;;4966393;28;21293;-88
2022/08/31 02:09:11;;;;;;;14.00;11.17;;;19.50;99.90;;;;;;4973076;28;20443;-88
2022/08/31 02:11:37;;;;;;;16.17;11.73;;;18.50;99.90;;;;;;4970387;28;20461;-89
2022/08/31 02:14:04;;;;;;;19.17;11.10;;;18.50;99.90;;;;;;4980375;28;20438;-88
2022/08/31 02:16:29;;;;;;;11.77;9.37;;;18.50;99.90;;;;;;4969694;28;20474;-89
2022/08/31 02:18:55;;;;;;;14.47;10.53;;;;;;;;;;4961313;28;20443;-87
2022/08/31 02:21:21;;;;;;;15.23;10.50;;;18.50;99.90;;;;;;4963054;28;20203;-89
2022/08/31 02:23:47;;;;;;;15.07;10.87;;;18.50;99.90;;;;;;4970517;28;21079;-89
2022/08/31 02:26:13;;;;;;;23.23;11.23;;;18.50;99.90;;;;;;4971312;28;20435;-89
2022/08/31 02:28:39;;;;;;;19.73;11.93;;;18.50;99.90;;;;;;4970844;28;20697;-88
2022/08/31 02:31:05;;;;;;;14.43;11.33;;;18.40;99.90;;;;;;4969059;28;20564;-89
2022/08/31 02:33:30;;;;;;;18.10;12.23;;;18.40;99.90;;;;;;4981003;28;20439;-89
2022/08/31 02:35:56;;;;;;;16.40;12.87;;;18.40;99.90;;;;;;4968325;28;20449;-90
2022/08/31 02:38:22;;;;;;;14.60;11.50;;;18.40;99.90;;;;;;4970698;28;20222;-89
2022/08/31 02:40:48;;;;;;;22.50;14.77;;;18.40;99.90;;;;;;4982405;28;20211;-90
2022/08/31 02:43:14;;;;;;;17.77;13.27;;;18.40;99.90;;;;;;4981290;28;20179;-89
2022/08/31 02:45:40;;;;;;;14.00;11.13;;;18.30;99.90;;;;;;4972594;28;20550;-89
2022/08/31 02:48:07;;;;;;;16.80;12.83;;;18.30;99.90;;;;;;4971165;28;20545;-90
2022/08/31 02:50:32;;;;;;;18.90;14.13;;;18.30;99.90;;;;;;4984618;28;20172;-89
2022/08/31 02:52:58;;;;;;;19.73;12.83;;;19.70;99.90;;;;;;4987282;28;21388;-91
2022/08/31 02:55:25;;;;;;;47.57;16.73;;;18.20;99.90;;;;;;4984609;28;20190;-91
2022/08/31 02:57:51;;;;;;;21.20;13.53;;;18.20;99.90;;;;;;4977346;28;20533;-88
2022/08/31 03:00:20;;;;;;;18.90;12.70;;;18.30;99.90;;;;;;4981976;28;20468;-90
2022/08/31 03:02:46;;;;;;;19.10;13.47;;;18.30;99.90;;;;;;4979596;28;20510;-90
2022/08/31 03:05:12;;;;;;;21.07;13.80;;;18.40;99.90;;;;;;4982116;28;20438;-89
2022/08/31 03:07:39;;;;;;;14.60;11.60;;;19.00;99.90;;;;;;4972512;28;20832;-89
2022/08/31 03:10:08;;;;;;;14.73;11.17;;;18.40;99.90;;;;;;4972691;28;20452;-89
2022/08/31 03:12:35;;;;;;;16.10;11.17;;;18.50;99.90;;;;;;4980954;28;20438;-89
2022/08/31 03:15:05;;;;;;;14.27;11.10;;;18.50;99.90;;;;;;4979034;28;20542;-89
2022/08/31 03:17:31;;;;;;;23.10;11.83;;;18.50;99.90;;;;;;4977644;28;21000;-89
2022/08/31 03:19:59;;;;;;;18.20;13.20;;;18.50;99.90;;;;;;4979111;28;20540;-89
2022/08/31 03:22:26;;;;;;;17.40;12.67;;;18.30;99.90;;;;;;4977832;28;20443;-90
2022/08/31 03:24:51;;;;;;;18.43;12.20;;;18.30;99.90;;;;;;4982829;28;20473;-91
2022/08/31 03:27:17;;;;;;;19.73;13.93;;;18.30;99.90;;;;;;4978166;28;20458;-90
2022/08/31 03:29:42;;;;;;;16.33;12.70;;;18.20;99.90;;;;;;4973493;28;20625;-90
2022/08/31 03:32:08;;;;;;;20.20;14.33;;;18.40;99.90;;;;;;4969857;28;20235;-90
2022/08/31 03:34:34;;;;;;;20.17;13.37;;;;;;;;;;4968516;28;20187;-90
2022/08/31 03:37:00;;;;;;;21.80;14.90;;;18.10;99.90;;;;;;4974220;28;20287;-91
2022/08/31 03:39:25;;;;;;;21.97;15.97;;;18.20;99.90;;;;;;4977055;28;20458;-91
2022/08/31 03:41:51;;;;;;;22.27;15.93;;;18.10;99.90;;;;;;4981666;28;20199;-88
2022/08/31 03:44:21;;;;;;;22.13;16.60;;;18.10;99.90;;;;;;4975679;28;20179;-90
2022/08/31 03:46:48;;;;;;;19.97;15.07;;;18.10;99.90;;;;;;4980381;28;20195;-89
2022/08/31 03:49:14;;;;;;;22.27;14.70;;;18.10;99.90;;;;;;4990095;28;20458;-89
2022/08/31 03:51:40;;;;;;;22.00;14.50;;;18.10;99.90;;;;;;4975846;28;20470;-90
2022/08/31 03:54:05;;;;;;;24.33;14.50;;;18.10;99.90;;;;;;4975258;28;20554;-90
2022/08/31 03:56:31;;;;;;;18.97;13.50;;;18.30;99.90;;;;;;4969387;28;20246;-89
2022/08/31 03:58:57;;;;;;;14.33;11.63;;;18.30;99.90;;;;;;4981154;28;20180;-90
2022/08/31 04:01:22;;;;;;;16.67;12.60;;;18.40;99.90;;;;;;4983636;28;20458;-90
2022/08/31 04:03:48;;;;;;;19.33;14.30;;;19.10;99.90;;;;;;4974274;28;20179;-90
2022/08/31 04:06:13;;;;;;;17.77;13.10;;;18.50;99.90;;;;;;4982936;28;20183;-90
2022/08/31 04:08:40;;;;;;;18.87;14.10;;;18.40;99.90;;;;;;4971637;28;20727;-90
2022/08/31 04:11:15;;;;;;;25.00;12.90;;;18.30;99.90;;;;;;4966023;28;20175;-90
2022/08/31 04:13:40;;;;;;;19.87;14.03;;;20.00;99.90;;;;;;4984174;28;20473;-90
2022/08/31 04:16:11;;;;;;;21.33;14.97;;;19.60;99.90;;;;;;4982203;28;20450;-90
2022/08/31 04:18:39;;;;;;;21.30;14.10;;;18.10;99.90;;;;;;4983921;28;20967;-89
2022/08/31 04:21:15;;;;;;;18.60;12.60;;;18.10;99.90;;;;;;4976066;28;20469;-90
2022/08/31 04:23:41;;;;;;;15.80;13.00;;;18.00;99.90;;;;;;4987312;28;20429;-90
2022/08/31 04:26:24;;;;;;;14.83;11.50;;;18.00;99.90;;;;;;4977744;28;20964;-89
2022/08/31 04:28:50;;;;;;;18.40;12.90;;;17.90;99.90;;;;;;4985417;28;20437;-89
2022/08/31 04:31:18;;;;;;;17.03;12.07;;;17.90;99.90;;;;;;4973654;28;20468;-89
2022/08/31 04:33:43;;;;;;;16.07;13.00;;;18.00;99.90;;;;;;4972474;28;20447;-88
2022/08/31 04:36:13;;;;;;;16.27;12.27;;;17.90;99.90;;;;;;4969937;28;20541;-90
2022/08/31 04:38:42;;;;;;;17.23;12.43;;;17.90;99.90;;;;;;4969098;28;21018;-89
2022/08/31 04:41:10;;;;;;;17.30;11.47;;;18.00;99.90;;;;;;4967908;28;21133;-89
2022/08/31 04:43:37;;;;;;;17.27;11.70;;;18.10;99.90;;;;;;4984890;28;20436;-89
2022/08/31 04:46:04;;;;;;;15.67;11.47;;;18.00;99.90;;;;;;4984873;28;20447;-90
2022/08/31 04:48:30;;;;;;;19.23;12.17;;;17.90;99.90;;;;;;4975275;28;20445;-90
2022/08/31 04:51:06;;;;;;;16.67;12.47;;;17.90;99.90;;;;;;4967196;28;20442;-90
2022/08/31 04:53:32;;;;;;;17.53;12.90;;;17.90;99.90;;;;;;4977421;28;20433;-89
2022/08/31 04:55:58;;;;;;;15.53;10.93;;;17.90;99.90;;;;;;4970862;28;20446;-90
2022/08/31 04:58:23;;;;;;;15.50;11.83;;;17.90;99.90;;;;;;4972977;28;20463;-89
2022/08/31 05:00:51;;;;;;;13.70;10.60;;;17.90;99.90;;;;;;4970572;28;20209;-91
2022/08/31 05:03:18;;;;;;;14.37;10.97;;;17.90;99.90;;;;;;4982950;28;20663;-90
2022/08/31 05:05:45;;;;;;;19.13;12.17;;;17.90;99.90;;;;;;4963019;28;20430;-89
2022/08/31 05:08:11;;;;;;;17.13;12.10;;;17.90;99.90;;;;;;4973728;28;20470;-90
2022/08/31 05:10:39;;;;;;;18.50;13.30;;;18.00;99.90;;;;;;4985802;28;20463;-90
2022/08/31 05:13:05;;;;;;;16.03;11.37;;;;;;;;;;4984612;28;20433;-89
2022/08/31 05:15:31;;;;;;;16.60;11.50;;;;;;;;;;4966034;28;20448;-89
2022/08/31 05:17:57;;;;;;;16.23;10.77;;;18.10;99.90;;;;;;4967787;28;20473;-91
2022/08/31 05:20:23;;;;;;;18.53;12.23;;;;;;;;;;4969557;28;20824;-89
2022/08/31 05:22:49;;;;;;;14.70;11.50;;;18.10;99.90;;;;;;4963849;28;20186;-90
2022/08/31 05:25:14;;;;;;;14.23;10.17;;;18.10;99.90;;;;;;4979735;28;20977;-90
2022/08/31 05:27:40;;;;;;;17.23;11.43;;;18.10;99.90;;;;;;4979294;28;20438;-91
2022/08/31 05:30:07;;;;;;;15.37;12.43;;;18.00;99.90;;;;;;4996590;28;20235;-90
2022/08/31 05:32:33;;;;;;;18.40;11.93;;;18.00;99.90;;;;;;5000119;28;20472;-90
2022/08/31 05:34:59;;;;;;;14.53;10.33;;;18.10;99.90;;;;;;4977520;28;20480;-90
2022/08/31 05:37:24;;;;;;;17.07;11.37;;;18.10;99.90;;;;;;4984591;28;20472;-90
2022/08/31 05:39:53;;;;;;;14.23;10.50;;;18.20;99.90;;;;;;4999475;28;20422;-89
2022/08/31 05:42:19;;;;;;;14.90;11.77;;;18.10;99.90;;;;;;4984586;28;20179;-89
2022/08/31 05:44:45;;;;;;;13.93;10.47;;;18.20;99.90;;;;;;4974970;28;20415;-88
2022/08/31 05:47:11;;;;;;;13.20;9.40;;;;;;;;;;4986642;28;20468;-89
2022/08/31 05:49:38;;;;;;;15.83;10.90;;;;;;;;;;4966302;28;20181;-88
2022/08/31 05:52:04;;;;;;;15.70;9.47;;;18.60;99.90;;;;;;4974106;28;20537;-90
2022/08/31 05:54:33;;;;;;;13.10;10.17;;;18.70;99.90;;;;;;4973476;28;20514;-89
2022/08/31 05:56:59;;;;;;;11.17;9.17;;;18.80;99.90;;;;;;4976636;28;20213;-88
2022/08/31 05:59:25;;;;;;;13.70;10.27;;;18.70;99.90;;;;;;4974990;28;20514;-89
2022/08/31 06:01:52;;;;;;;15.80;10.17;;;18.80;99.90;;;;;;4976823;28;20194;-88
2022/08/31 06:04:18;;;;;;;18.80;11.30;;;;;;;;;;4989076;28;20574;-89
2022/08/31 06:06:43;;;;;;;10.83;8.40;;;19.00;99.90;;;;;;4971081;28;20915;-90
2022/08/31 06:09:10;;;;;;;10.60;8.47;;;19.00;99.90;;;;;;4960641;28;20550;-89
2022/08/31 06:11:40;;;;;;;8.47;7.27;;;19.30;99.90;;;;;;4978748;28;20179;-90
2022/08/31 06:14:08;;;;;;;9.40;8.07;;;19.50;99.90;;;;;;4994524;28;20438;-90
2022/08/31 06:16:34;;;;;;;12.70;8.77;;;19.60;99.90;;;;;;4995914;28;20430;-90
2022/08/31 06:19:03;;;;;;;9.73;8.60;;;19.50;99.90;;;;;;4996928;28;21035;-90
2022/08/31 06:21:32;;;;;;;12.97;9.63;;;19.40;99.90;;;;;;4999588;28;20512;-90
2022/08/31 06:23:58;;;;;;;13.00;9.80;;;19.30;99.90;;;;;;4997165;28;20449;-90
2022/08/31 06:26:26;;;;;;;10.77;9.23;;;19.30;99.90;;;;;;4966997;28;20438;-90
2022/08/31 06:28:54;;;;;;;16.07;10.30;;;19.30;99.90;;;;;;4966975;28;20423;-89
2022/08/31 06:31:22;;;;;;;12.57;9.47;;;19.40;99.90;;;;;;4973563;28;20951;-88
2022/08/31 06:33:48;;;;;;;11.80;9.47;;;19.30;99.90;;;;;;4976521;28;20434;-86
2022/08/31 06:36:16;;;;;;;10.77;9.63;;;19.20;99.90;;;;;;4989347;28;20557;-85
2022/08/31 06:38:42;;;;;;;14.97;9.70;;;19.00;99.90;;;;;;4991048;28;20466;-85
2022/08/31 06:41:29;;;;;;;12.60;9.47;;;18.80;99.90;;;;;;4991129;28;20465;-85
2022/08/31 06:43:57;;;;;;;10.53;8.90;;;18.80;99.90;;;;;;4989934;28;20421;-85
2022/08/31 06:46:23;;;;;;;12.27;9.20;;;18.80;99.90;;;;;;4989210;28;20433;-85
2022/08/31 06:48:52;;;;;;;11.90;9.73;;;18.80;99.90;;;;;;4986829;28;20781;-85
2022/08/31 06:51:17;;;;;;;12.67;9.43;;;18.70;99.90;;;;;;4990219;28;20222;-85
2022/08/31 06:53:43;;;;;;;13.97;9.40;;;18.70;99.90;;;;;;4990983;28;20471;-85
2022/08/31 06:56:12;;;;;;;10.47;7.63;;;18.80;99.90;;;;;;4990473;28;20183;-84
2022/08/31 06:58:38;;;;;;;11.03;8.53;;;18.90;99.90;;;;;;4974134;28;20195;-85
2022/08/31 07:01:10;;;;;;;8.90;8.00;;;19.00;99.90;;;;;;4990012;28;20545;-85
2022/08/31 07:03:37;;;;;;;11.50;7.70;;;19.10;99.90;;;;;;4991480;28;20426;-85
2022/08/31 07:06:09;;;;;;;9.67;8.63;;;19.30;99.90;;;;;;4988599;28;20462;-85
2022/08/31 07:08:35;;;;;;;10.43;8.03;;;19.60;99.90;;;;;;4971072;28;20532;-84
2022/08/31 07:11:02;;;;;;;14.00;6.67;;;19.80;99.90;;;;;;4989086;28;20434;-84
2022/08/31 07:13:29;;;;;;;7.90;6.30;;;19.90;99.90;;;;;;4989574;28;20468;-85
2022/08/31 07:16:09;;;;;;;12.10;6.60;;;20.00;99.90;;;;;;4991290;28;20442;-84
2022/08/31 07:18:35;;;;;;;11.40;6.70;;;20.10;99.90;;;;;;4987146;28;20475;-84
2022/08/31 07:21:20;;;;;;;9.27;6.57;;;20.10;99.90;;;;;;4984122;28;21034;-84
2022/08/31 07:23:46;;;;;;;8.43;6.33;;;20.10;99.90;;;;;;4984542;28;20456;-84
2022/08/31 07:26:16;;;;;;;11.50;6.10;;;20.10;99.90;;;;;;4971417;28;20430;-84
2022/08/31 07:28:42;;;;;;;6.63;5.50;;;20.10;99.90;;;;;;4986255;28;20450;-84
2022/08/31 07:31:09;;;;;;;8.73;5.43;;;20.20;99.90;;;;;;4986847;28;20433;-84
2022/08/31 07:33:39;;;;;;;6.13;5.53;;;20.40;99.90;;;;;;4981946;28;20521;-84
2022/08/31 07:36:08;;;;;;;7.77;5.90;;;20.50;99.90;;;;;;4983701;28;21137;-85
2022/08/31 07:44:03;;;;;;;8.73;5.90;;;20.60;99.90;;;;;;4984652;28;20492;-84
2022/08/31 07:46:30;;;;;;;10.33;6.20;;;20.60;99.90;;;;;;4980456;28;20952;-84
2022/08/31 07:48:56;;;;;;;6.10;5.47;;;20.60;99.90;;;;;;4986681;28;20259;-84
2022/08/31 07:51:23;;;;;;;6.40;5.80;;;20.80;99.90;;;;;;4987541;28;20457;-83
2022/08/31 07:53:50;;;;;;;7.17;5.90;;;20.90;99.90;;;;;;4983984;28;20457;-82
2022/08/31 07:56:17;;;;;;;7.60;5.80;;;21.10;99.90;;;;;;4987154;28;20528;-82
2022/08/31 07:58:42;;;;;;;8.00;6.03;;;21.30;99.90;;;;;;4985026;28;20485;-82
2022/08/31 08:01:08;;;;;;;8.30;5.63;;;21.30;99.90;;;;;;4984306;28;20458;-83
2022/08/31 08:03:33;;;;;;;8.23;5.23;;;21.20;99.90;;;;;;4970410;28;20183;-83
2022/08/31 08:05:59;;;;;;;8.10;6.53;;;21.30;99.90;;;;;;4979635;28;22087;-83
2022/08/31 08:08:25;;;;;;;7.10;5.70;;;21.40;99.90;;;;;;4983143;28;20242;-83
2022/08/31 08:10:50;;;;;;;7.63;6.47;;;21.50;99.90;;;;;;4985800;28;20250;-83
2022/08/31 08:13:18;;;;;;;6.23;5.60;;;21.40;99.90;;;;;;4986707;28;20191;-83
2022/08/31 08:15:44;;;;;;;9.20;5.80;;;21.40;99.90;;;;;;4987315;28;20214;-83
2022/08/31 08:18:12;;;;;;;8.40;6.23;;;21.40;99.90;;;;;;4976565;28;21014;-82
2022/08/31 08:20:38;;;;;;;10.33;6.60;;;21.40;99.90;;;;;;4990919;28;20609;-85
2022/08/31 08:23:11;;;;;;;11.10;5.70;;;21.10;99.90;;;;;;4985339;28;20550;-84
2022/08/31 08:25:36;;;;;;;8.30;6.10;;;20.90;99.90;;;;;;4986698;28;20442;-84
2022/08/31 08:28:02;;;;;;;18.73;6.87;;;20.80;99.90;;;;;;4983805;28;20459;-85
2022/08/31 08:30:28;;;;;;;11.43;5.63;;;20.60;99.90;;;;;;4982242;28;20183;-86
2022/08/31 08:32:53;;;;;;;9.73;6.67;;;20.50;99.90;;;;;;4980948;28;21097;-85
2022/08/31 08:35:19;;;;;;;7.80;6.27;;;20.30;99.90;;;;;;4974874;28;20192;-86
2022/08/31 08:37:46;;;;;;;7.93;6.00;;;20.40;99.90;;;;;;4981061;28;20203;-86
2022/08/31 08:40:35;;;;;;;7.77;6.20;;;20.50;99.90;;;;;;4973763;28;21018;-85
2022/08/31 08:43:03;;;;;;;12.30;7.07;;;20.60;99.90;;;;;;4980541;28;20449;-84
2022/08/31 08:45:30;;;;;;;10.07;6.53;;;20.50;99.90;;;;;;4978102;28;20467;-83
2022/08/31 08:47:56;;;;;;;6.67;5.93;;;20.60;99.90;;;;;;4973851;28;20470;-84
2022/08/31 08:50:26;;;;;;;10.00;7.73;;;20.60;99.90;;;;;;4977546;28;21625;-85
2022/08/31 08:52:55;;;;;;;7.40;5.73;;;20.60;99.90;;;;;;4975583;28;20445;-84
2022/08/31 08:55:29;;;;;;;11.77;6.37;;;20.70;99.90;;;;;;4972810;28;20804;-85
2022/08/31 08:57:55;;;;;;;8.53;5.90;;;20.90;99.90;;;;;;4973413;28;20474;-86
2022/08/31 09:00:24;;;;;;;11.80;6.70;;;21.20;99.90;;;;;;4977358;28;20465;-82
2022/08/31 09:03:02;;;;;;;8.10;6.10;;;21.40;99.90;;;;;;4956984;28;20502;-88
2022/08/31 09:05:58;;;;;;;11.80;7.37;;;21.40;99.90;;;;;;4977144;28;20461;-88
2022/08/31 09:08:58;;;;;;;8.03;6.20;;;21.40;99.90;;;;;;4958697;28;20458;-84
2022/08/31 09:11:34;;;;;;;10.33;7.07;;;21.40;99.90;;;;;;4973676;28;20465;-84
2022/08/31 09:14:37;;;;;;;6.63;5.40;;;21.40;99.90;;;;;;4976635;28;20442;-84
2022/08/31 09:17:24;;;;;;;11.00;6.47;;;21.50;99.90;;;;;;4977758;28;20473;-84
2022/08/31 09:20:00;;;;;;;10.57;6.73;;;;;;;;;;4977535;28;20438;-85
2022/08/31 09:22:45;;;;;;;11.53;6.93;;;21.60;99.90;;;;;;4967436;28;20469;-85
2022/08/31 09:25:31;;;;;;;9.00;6.00;;;21.50;99.90;;;;;;4981602;28;20484;-84
2022/08/31 09:27:59;;;;;;;9.87;6.33;;;21.40;99.90;;;;;;4972793;28;20463;-85
2022/08/31 09:30:43;;;;;;;10.13;6.80;;;21.40;99.90;;;;;;4975039;28;20473;-85
2022/08/31 09:33:45;;;;;;;12.20;7.60;;;21.20;99.90;;;;;;4969987;28;20719;-84
2022/08/31 09:36:16;;;;;;;9.00;7.33;;;21.30;99.90;;;;;;4972029;28;20440;-85
2022/08/31 09:38:45;;;;;;;14.80;7.37;;;21.20;99.90;;;;;;4977849;28;20448;-85
2022/08/31 09:41:29;;;;;;;12.80;7.53;;;21.30;99.90;;;;;;4979444;28;20506;-85
2022/08/31 09:44:18;;;;;;;7.90;6.30;;;21.30;99.90;;;;;;4960860;28;20534;-84
2022/08/31 09:46:55;;;;;;;11.03;8.10;;;21.50;99.90;;;;;;4976191;28;20446;-85
2022/08/31 09:49:25;;;;;;;10.50;6.73;;;21.60;99.90;;;;;;4976529;28;20434;-85
2022/08/31 09:51:51;;;;;;;8.60;6.90;;;21.90;99.90;;;;;;4977455;28;20441;-85
2022/08/31 09:57:06;;;;;;;6.70;5.87;;;22.00;99.90;;;;;;4980872;28;20234;-85
2022/08/31 09:59:48;;;;;;;9.80;6.57;;;22.30;99.90;;;;;;4963179;28;20439;-85
2022/08/31 10:02:24;;;;;;;10.33;6.63;;;22.50;99.90;;;;;;4983344;28;20569;-84
2022/08/31 10:05:04;;;;;;;7.33;6.50;;;22.80;99.90;;;;;;4983636;28;20504;-85
2022/08/31 10:07:43;;;;;;;8.73;6.40;;;22.90;99.90;;;;;;4987814;28;20460;-85
2022/08/31 10:10:14;;;;;;;11.20;5.50;;;23.00;99.90;;;;;;4975727;28;20429;-84
2022/08/31 10:12:56;;;;;;;9.63;6.47;;;23.10;99.90;;;;;;4983005;28;20504;-84
2022/08/31 10:15:27;;;;;;;9.30;6.67;;;23.00;99.90;;;;;;4964410;28;20434;-85
2022/08/31 10:18:12;;;;;;;9.03;7.03;;;23.10;99.90;;;;;;4987038;28;20501;-84
2022/08/31 10:20:45;;;;;;;13.30;6.13;;;23.50;99.90;;;;;;4987873;28;20572;-86
2022/08/31 10:23:25;;;;;;;9.63;5.47;;;23.80;99.90;;;;;;4989007;28;20427;-85
2022/08/31 10:25:57;;;;;;;11.13;6.47;;;23.70;99.90;;;;;;4977509;28;20445;-85
2022/08/31 10:28:30;;;;;;;8.60;6.40;;;23.30;99.90;;;;;;4988843;28;20451;-85
2022/08/31 10:30:58;;;;;;;6.80;6.10;;;23.10;99.90;;;;;;4989839;28;20439;-85
2022/08/31 10:35:02;;;;;;;8.60;6.07;;;23.20;99.90;;;;;;4991097;28;20495;-85
2022/08/31 10:36:19;;;;;;;11.03;5.90;;;23.00;99.90;;;;;;4986319;28;20449;-85
2022/08/31 10:38:48;;;;;;;8.37;6.40;;;22.70;99.90;;;;;;4978732;28;20774;-84
2022/08/31 10:41:29;;;;;;;8.33;5.90;;;22.70;99.90;;;;;;4989682;28;20203;-85
2022/08/31 10:44:15;;;;;;;10.87;7.23;;;22.70;99.90;;;;;;4981532;28;20486;-81
2022/08/31 10:46:41;;;;;;;7.87;6.37;;;22.50;99.90;;;;;;4978382;28;20423;-82
2022/08/31 10:49:06;;;;;;;9.60;7.10;;;22.50;99.90;;;;;;4976208;28;20427;-82
2022/08/31 10:51:54;;;;;;;13.23;6.03;;;22.60;99.90;;;;;;4976600;28;20245;-81
2022/08/31 10:54:50;;;;;;;12.33;6.10;;;22.70;99.90;;;;;;4974760;28;20187;-81
2022/08/31 10:57:50;;;;;;;10.30;6.73;;;22.80;99.90;;;;;;4978846;28;20458;-81
2022/08/31 11:03:34;;;;;;;7.00;6.00;;;22.80;99.90;;;;;;4976166;28;20436;-82
2022/08/31 11:06:13;;;;;;;9.10;5.60;;;23.00;99.90;;;;;;4978468;28;20810;-82
2022/08/31 11:08:56;;;;;;;6.27;5.37;;;24.10;99.90;;;;;;4967642;28;20482;-83
2022/08/31 11:11:44;;;;;;;27.53;8.40;;;23.40;99.90;;;;;;4987459;28;20458;-82
2022/08/31 11:14:44;;;;;;;6.13;5.37;;;23.80;99.90;;;;;;4987009;28;20449;-81
2022/08/31 11:17:31;;;;;;;9.03;6.10;;;24.00;99.90;;;;;;4984002;28;20839;-82
2022/08/31 11:20:22;;;;;;;7.50;6.00;;;24.30;99.90;;;;;;4984904;28;20447;-82
2022/08/31 11:23:12;;;;;;;9.87;6.37;;;24.50;99.90;;;;;;4988048;28;20434;-82
2022/08/31 11:25:57;;;;;;;8.17;6.03;;;24.30;99.90;;;;;;4985976;28;20756;-82
2022/08/31 11:28:38;;;;;;;9.97;6.03;;;24.10;99.90;;;;;;4980281;28;20518;-82
2022/08/31 11:31:19;;;;;;;12.03;6.60;;;24.10;99.90;;;;;;4982845;28;20454;-81
2022/08/31 11:33:49;;;;;;;7.93;6.00;;;24.40;99.90;;;;;;4965755;28;20440;-82
2022/08/31 11:36:47;;;;;;;8.30;6.53;;;24.70;99.90;;;;;;4983735;28;20750;-81
2022/08/31 11:39:16;;;;;;;8.00;6.73;;;25.20;99.90;;;;;;4986713;28;20434;-80
2022/08/31 11:41:47;;;;;;;9.17;6.07;;;25.40;99.90;;;;;;4985158;28;20462;-83
2022/08/31 11:44:35;;;;;;;7.10;6.00;;;24.80;99.90;;;;;;4984490;28;20431;-82
2022/08/31 11:47:06;;;;;;;10.07;6.40;;;24.90;99.90;;;;;;4961262;28;20465;-84
2022/08/31 11:49:48;;;;;;;7.40;5.90;;;25.50;99.90;;;;;;4976213;28;20481;-85
2022/08/31 11:52:23;;;;;;;8.07;6.60;;;26.10;99.90;;;;;;4963003;28;20436;-81
2022/08/31 11:54:49;;;;;;;12.10;5.70;;;26.60;99.90;;;;;;4983466;28;21409;-84
2022/08/31 11:57:27;;;;;;;8.27;6.90;;;26.70;99.90;;;;;;4967937;28;20915;-84
2022/08/31 11:59:54;;;;;;;8.10;5.87;;;26.60;99.90;;;;;;4983228;28;20431;-83
2022/08/31 12:02:20;;;;;;;13.57;6.73;;;26.00;99.90;;;;;;4982228;28;20496;-82
2022/08/31 12:04:50;;;;;;;9.20;6.37;;;25.70;99.90;;;;;;4981552;28;20435;-84
2022/08/31 12:07:35;;;;;;;13.43;7.60;;;25.60;99.90;;;;;;4982702;28;20228;-83
2022/08/31 12:10:25;;;;;;;10.70;6.47;;;25.50;99.90;;;;;;4977945;28;20522;-83
2022/08/31 12:13:17;;;;;;;12.70;6.83;;;25.40;99.90;;;;;;4980912;28;20823;-82
2022/08/31 12:15:59;;;;;;;8.73;6.10;;;25.80;99.90;;;;;;4977643;28;20470;-82
2022/08/31 12:18:42;;;;;;;10.00;7.13;;;26.00;99.90;;;;;;4963044;28;20457;-82
2022/08/31 12:24:35;;;;;;;7.70;6.90;;;26.10;99.90;;;;;;4988639;28;20496;-83
2022/08/31 12:27:13;;;;;;;9.17;5.80;;;25.40;99.90;;;;;;4986276;28;20474;-84
2022/08/31 12:29:40;;;;;;;8.83;5.97;;;25.50;99.90;;;;;;4984643;28;20447;-84
2022/08/31 12:32:34;;;;;;;12.80;5.67;;;25.70;99.90;;;;;;4971165;28;20441;-83
2022/08/31 12:35:23;;;;;;;6.97;5.80;;;25.50;99.90;;;;;;4983836;28;20949;-84
2022/08/31 12:38:06;;;;;;;10.70;6.20;;;25.20;99.90;;;;;;4974737;28;20460;-83
2022/08/31 12:40:34;;;;;;;8.77;6.17;;;25.00;99.90;;;;;;4982445;28;20475;-84
2022/08/31 12:43:24;;;;;;;14.17;6.57;;;25.20;99.90;;;;;;4984470;28;21050;-84
2022/08/31 12:46:17;;;;;;;17.37;6.80;;;25.30;99.90;;;;;;4983597;28;20443;-84
2022/08/31 12:49:20;;;;;;;34.47;11.97;;;25.30;99.90;;;;;;4979846;28;20501;-84
2022/08/31 12:51:59;;;;;;;13.40;6.00;;;25.40;99.90;;;;;;4979693;28;20564;-84
2022/08/31 12:54:55;;;;;;;7.50;5.97;;;25.40;99.90;;;;;;4981605;28;21081;-84
2022/08/31 12:57:54;;;;;;;6.97;5.80;;;25.70;99.90;;;;;;4975167;28;20459;-84
2022/08/31 13:00:31;;;;;;;17.67;5.60;;;26.10;99.90;;;;;;4974079;28;20999;-83
2022/08/31 13:03:25;;;;;;;7.83;5.10;;;26.10;99.90;;;;;;4974142;28;20430;-84
2022/08/31 13:06:12;;;;;;;10.67;5.17;;;26.20;99.90;;;;;;4976202;28;20442;-83
2022/08/31 13:08:49;;;;;;;7.30;5.43;;;26.30;99.90;;;;;;4959195;28;20452;-82
2022/08/31 13:11:34;;;;;;;9.67;5.57;;;26.40;99.90;;;;;;4975694;28;20438;-82
2022/08/31 13:14:08;;;;;;;12.03;5.97;;;26.40;99.90;;;;;;4963400;28;20475;-83
2022/08/31 13:16:33;;;;;;;10.40;5.13;;;27.30;99.90;;;;;;4974542;28;20465;-84
2022/08/31 13:19:04;;;;;;;7.33;5.70;;;26.30;99.90;;;;;;4961828;28;20442;-83
2022/08/31 13:21:30;;;;;;;7.73;5.23;;;26.20;99.90;;;;;;4976222;28;20750;-84